Current Weather

Palm Springs Intl

Palm Springs, California (KPSP)

Report from: Thursday, July 18, 2024 6:53 AM PDT
Current time: Thursday, July 18, 2024 7:20 AM PDT

Nearby weather – Weather history – Daily summaries
Weather forecast

Temperature31.7°C (89.1°F)
Heat index30.8°C (87.4°F)
Dew point13.3°C (55.9°F)
Winds Calm
Visibility10 mi. (16.1 km)
Clouds Sky clear
Altimeter29.86 in.Hg (1011 mB)
Relative humidity33 %
Density altitude2,210 ft. (674 m)
Sea-level pressure101.1 kPa (1011 mB, 29.84 in.Hg)
Remarks System requires maintenance
Automated weather observing station with precipitation discriminator
Flight conditions Visual Meteorological Conditions
Raw dataKPSP 181353Z 00000KT 10SM CLR 32/13 A2986 RMK AO2 SLP106 T03170133 $
An error has occurred. This application may no longer respond until reloaded. Reload 🗙